sensor_id;sensor_type;location;lat;lon;timestamp;P1;durP1;ratioP1;P2;durP2;ratioP2
72115;SDS011;59991;52.140;5.428;2022-12-07T00:00:38;8.27;;;5.35;;
72115;SDS011;59991;52.140;5.428;2022-12-07T00:01:11;6.45;;;4.85;;
72115;SDS011;59991;52.140;5.428;2022-12-07T00:01:45;5.22;;;4.40;;
72115;SDS011;59991;52.140;5.428;2022-12-07T00:02:17;8.83;;;5.77;;
72115;SDS011;59991;52.140;5.428;2022-12-07T00:02:49;6.22;;;4.57;;
72115;SDS011;59991;52.140;5.428;2022-12-07T00:03:20;8.00;;;4.68;;
72115;SDS011;59991;52.140;5.428;2022-12-07T00:03:52;7.05;;;5.20;;
72115;SDS011;59991;52.140;5.428;2022-12-07T00:04:25;5.30;;;4.80;;
72115;SDS011;59991;52.140;5.428;2022-12-07T00:04:57;7.38;;;4.60;;
72115;SDS011;59991;52.140;5.428;2022-12-07T00:05:29;7.53;;;5.05;;
72115;SDS011;59991;52.140;5.428;2022-12-07T00:06:01;6.20;;;4.95;;
72115;SDS011;59991;52.140;5.428;2022-12-07T00:06:35;7.00;;;5.43;;
72115;SDS011;59991;52.140;5.428;2022-12-07T00:07:08;6.88;;;4.78;;
72115;SDS011;59991;52.140;5.428;2022-12-07T00:07:40;6.83;;;4.50;;
72115;SDS011;59991;52.140;5.428;2022-12-07T00:08:11;7.30;;;4.28;;
72115;SDS011;59991;52.140;5.428;2022-12-07T00:08:43;8.93;;;4.90;;
72115;SDS011;59991;52.140;5.428;2022-12-07T00:09:15;6.78;;;5.15;;
72115;SDS011;59991;52.140;5.428;2022-12-07T00:09:48;6.50;;;4.43;;
72115;SDS011;59991;52.140;5.428;2022-12-07T00:10:19;6.25;;;4.43;;
72115;SDS011;59991;52.140;5.428;2022-12-07T00:10:51;8.38;;;4.45;;
72115;SDS011;59991;52.140;5.428;2022-12-07T00:11:22;5.20;;;4.40;;
72115;SDS011;59991;52.140;5.428;2022-12-07T00:11:54;6.22;;;4.90;;
72115;SDS011;59991;52.140;5.428;2022-12-07T00:12:25;10.00;;;4.57;;
72115;SDS011;59991;52.140;5.428;2022-12-07T00:12:57;7.70;;;3.97;;
72115;SDS011;59991;52.140;5.428;2022-12-07T00:13:28;6.38;;;4.40;;
72115;SDS011;59991;52.140;5.428;2022-12-07T00:14:01;11.82;;;4.63;;
72115;SDS011;59991;52.140;5.428;2022-12-07T00:14:35;5.60;;;5.10;;
72115;SDS011;59991;52.140;5.428;2022-12-07T00:15:07;9.18;;;5.55;;
72115;SDS011;59991;52.140;5.428;2022-12-07T00:15:38;7.85;;;4.53;;
72115;SDS011;59991;52.140;5.428;2022-12-07T00:16:14;6.05;;;4.65;;
72115;SDS011;59991;52.140;5.428;2022-12-07T00:16:48;8.25;;;4.90;;
72115;SDS011;59991;52.140;5.428;2022-12-07T00:17:20;7.32;;;4.35;;
72115;SDS011;59991;52.140;5.428;2022-12-07T00:17:52;5.88;;;3.95;;
72115;SDS011;59991;52.140;5.428;2022-12-07T00:18:23;5.13;;;3.90;;
72115;SDS011;59991;52.140;5.428;2022-12-07T00:18:55;6.13;;;4.75;;
72115;SDS011;59991;52.140;5.428;2022-12-07T00:19:27;9.32;;;4.80;;
72115;SDS011;59991;52.140;5.428;2022-12-07T00:19:58;8.98;;;5.00;;
72115;SDS011;59991;52.140;5.428;2022-12-07T00:20:48;6.88;;;4.10;;
72115;SDS011;59991;52.140;5.428;2022-12-07T00:21:21;8.77;;;4.53;;
72115;SDS011;59991;52.140;5.428;2022-12-07T00:21:55;8.43;;;4.25;;
72115;SDS011;59991;52.140;5.428;2022-12-07T00:22:26;7.28;;;5.40;;
72115;SDS011;59991;52.140;5.428;2022-12-07T00:22:57;6.22;;;4.97;;
72115;SDS011;59991;52.140;5.428;2022-12-07T00:23:29;8.40;;;4.78;;
72115;SDS011;59991;52.140;5.428;2022-12-07T00:24:01;6.50;;;4.33;;
72115;SDS011;59991;52.140;5.428;2022-12-07T00:24:33;6.45;;;4.10;;
72115;SDS011;59991;52.140;5.428;2022-12-07T00:25:05;4.90;;;4.03;;
72115;SDS011;59991;52.140;5.428;2022-12-07T00:25:36;8.27;;;5.32;;
72115;SDS011;59991;52.140;5.428;2022-12-07T00:26:45;7.72;;;4.10;;
72115;SDS011;59991;52.140;5.428;2022-12-07T00:27:16;10.52;;;5.22;;
72115;SDS011;59991;52.140;5.428;2022-12-07T00:27:47;7.30;;;4.55;;
72115;SDS011;59991;52.140;5.428;2022-12-07T00:28:19;5.20;;;4.18;;
72115;SDS011;59991;52.140;5.428;2022-12-07T00:28:51;6.15;;;3.97;;
72115;SDS011;59991;52.140;5.428;2022-12-07T00:29:27;5.60;;;4.83;;
72115;SDS011;59991;52.140;5.428;2022-12-07T00:29:59;6.72;;;3.95;;
72115;SDS011;59991;52.140;5.428;2022-12-07T00:30:31;8.48;;;4.47;;
72115;SDS011;59991;52.140;5.428;2022-12-07T00:31:06;8.95;;;4.72;;
72115;SDS011;59991;52.140;5.428;2022-12-07T00:31:39;7.40;;;4.55;;
72115;SDS011;59991;52.140;5.428;2022-12-07T00:32:11;9.57;;;4.97;;
72115;SDS011;59991;52.140;5.428;2022-12-07T00:32:42;4.68;;;3.95;;
72115;SDS011;59991;52.140;5.428;2022-12-07T00:33:13;9.93;;;4.47;;
72115;SDS011;59991;52.140;5.428;2022-12-07T00:33:45;9.10;;;4.20;;
72115;SDS011;59991;52.140;5.428;2022-12-07T00:34:18;4.38;;;3.97;;
72115;SDS011;59991;52.140;5.428;2022-12-07T00:34:51;6.50;;;5.77;;
72115;SDS011;59991;52.140;5.428;2022-12-07T00:35:23;6.78;;;4.72;;
72115;SDS011;59991;52.140;5.428;2022-12-07T00:35:55;10.98;;;5.57;;
72115;SDS011;59991;52.140;5.428;2022-12-07T00:36:27;7.53;;;4.45;;
72115;SDS011;59991;52.140;5.428;2022-12-07T00:36:58;6.30;;;5.03;;
72115;SDS011;59991;52.140;5.428;2022-12-07T00:37:30;7.53;;;4.57;;
72115;SDS011;59991;52.140;5.428;2022-12-07T00:38:01;7.18;;;4.30;;
72115;SDS011;59991;52.140;5.428;2022-12-07T00:38:33;8.25;;;4.45;;
72115;SDS011;59991;52.140;5.428;2022-12-07T00:39:06;8.10;;;4.05;;
72115;SDS011;59991;52.140;5.428;2022-12-07T00:39:37;7.15;;;5.05;;
72115;SDS011;59991;52.140;5.428;2022-12-07T00:40:09;9.37;;;5.80;;
72115;SDS011;59991;52.140;5.428;2022-12-07T00:40:40;6.10;;;4.38;;
72115;SDS011;59991;52.140;5.428;2022-12-07T00:41:15;5.97;;;4.68;;
72115;SDS011;59991;52.140;5.428;2022-12-07T00:41:49;6.57;;;3.83;;
72115;SDS011;59991;52.140;5.428;2022-12-07T00:42:20;9.55;;;5.63;;
72115;SDS011;59991;52.140;5.428;2022-12-07T00:42:51;5.50;;;4.90;;
72115;SDS011;59991;52.140;5.428;2022-12-07T00:43:23;8.00;;;4.97;;
72115;SDS011;59991;52.140;5.428;2022-12-07T00:43:54;6.22;;;5.15;;
72115;SDS011;59991;52.140;5.428;2022-12-07T00:44:26;8.27;;;4.63;;
72115;SDS011;59991;52.140;5.428;2022-12-07T00:44:57;8.80;;;6.10;;
72115;SDS011;59991;52.140;5.428;2022-12-07T00:45:29;8.93;;;4.73;;
72115;SDS011;59991;52.140;5.428;2022-12-07T00:46:00;14.55;;;5.15;;
72115;SDS011;59991;52.140;5.428;2022-12-07T00:46:32;7.35;;;4.10;;
72115;SDS011;59991;52.140;5.428;2022-12-07T00:47:04;12.55;;;5.63;;
72115;SDS011;59991;52.140;5.428;2022-12-07T00:47:35;7.47;;;5.35;;
72115;SDS011;59991;52.140;5.428;2022-12-07T00:48:07;5.13;;;4.05;;
72115;SDS011;59991;52.140;5.428;2022-12-07T00:48:38;14.68;;;5.80;;
72115;SDS011;59991;52.140;5.428;2022-12-07T00:49:10;7.63;;;5.03;;
72115;SDS011;59991;52.140;5.428;2022-12-07T00:49:41;5.10;;;4.55;;
72115;SDS011;59991;52.140;5.428;2022-12-07T00:50:13;11.18;;;5.07;;
72115;SDS011;59991;52.140;5.428;2022-12-07T00:50:44;7.07;;;4.40;;
72115;SDS011;59991;52.140;5.428;2022-12-07T00:51:17;14.13;;;4.20;;
72115;SDS011;59991;52.140;5.428;2022-12-07T00:51:50;8.75;;;6.10;;
72115;SDS011;59991;52.140;5.428;2022-12-07T00:52:22;8.75;;;4.97;;
72115;SDS011;59991;52.140;5.428;2022-12-07T00:52:53;12.48;;;5.55;;
72115;SDS011;59991;52.140;5.428;2022-12-07T00:53:25;6.80;;;4.82;;
72115;SDS011;59991;52.140;5.428;2022-12-07T00:53:57;5.97;;;4.32;;
72115;SDS011;59991;52.140;5.428;2022-12-07T00:54:28;9.27;;;4.57;;
72115;SDS011;59991;52.140;5.428;2022-12-07T00:55:00;10.65;;;5.45;;
72115;SDS011;59991;52.140;5.428;2022-12-07T00:55:35;8.02;;;5.22;;
72115;SDS011;59991;52.140;5.428;2022-12-07T00:56:08;5.83;;;5.33;;
72115;SDS011;59991;52.140;5.428;2022-12-07T00:56:42;5.07;;;4.60;;
72115;SDS011;59991;52.140;5.428;2022-12-07T00:57:14;7.00;;;4.82;;
72115;SDS011;59991;52.140;5.428;2022-12-07T00:57:45;7.90;;;4.93;;
72115;SDS011;59991;52.140;5.428;2022-12-07T00:58:16;4.95;;;3.67;;
72115;SDS011;59991;52.140;5.428;2022-12-07T00:59:21;6.03;;;4.20;;
72115;SDS011;59991;52.140;5.428;2022-12-07T00:59:46;6.03;;;3.75;;
72115;SDS011;59991;52.140;5.428;2022-12-07T01:00:17;9.18;;;4.57;;
72115;SDS011;59991;52.140;5.428;2022-12-07T01:00:49;7.82;;;4.68;;
72115;SDS011;59991;52.140;5.428;2022-12-07T01:01:21;9.20;;;4.72;;
72115;SDS011;59991;52.140;5.428;2022-12-07T01:01:53;12.60;;;4.90;;
72115;SDS011;59991;52.140;5.428;2022-12-07T01:02:24;6.15;;;4.65;;
72115;SDS011;59991;52.140;5.428;2022-12-07T01:02:56;7.15;;;4.47;;
72115;SDS011;59991;52.140;5.428;2022-12-07T01:03:27;10.18;;;5.43;;
72115;SDS011;59991;52.140;5.428;2022-12-07T01:03:59;8.30;;;4.78;;
72115;SDS011;59991;52.140;5.428;2022-12-07T01:04:34;8.02;;;4.50;;
72115;SDS011;59991;52.140;5.428;2022-12-07T01:05:06;8.77;;;4.00;;
72115;SDS011;59991;52.140;5.428;2022-12-07T01:05:37;7.93;;;4.15;;
72115;SDS011;59991;52.140;5.428;2022-12-07T01:06:09;7.60;;;4.70;;
72115;SDS011;59991;52.140;5.428;2022-12-07T01:06:45;10.57;;;4.28;;
72115;SDS011;59991;52.140;5.428;2022-12-07T01:07:17;9.17;;;4.10;;
72115;SDS011;59991;52.140;5.428;2022-12-07T01:07:48;7.63;;;3.90;;
72115;SDS011;59991;52.140;5.428;2022-12-07T01:08:19;7.97;;;3.90;;
72115;SDS011;59991;52.140;5.428;2022-12-07T01:08:52;8.73;;;4.75;;
72115;SDS011;59991;52.140;5.428;2022-12-07T01:09:23;8.63;;;5.07;;
72115;SDS011;59991;52.140;5.428;2022-12-07T01:09:55;7.38;;;4.80;;
72115;SDS011;59991;52.140;5.428;2022-12-07T01:10:26;7.22;;;4.10;;
72115;SDS011;59991;52.140;5.428;2022-12-07T01:11:03;11.02;;;4.68;;
72115;SDS011;59991;52.140;5.428;2022-12-07T01:11:36;13.10;;;4.68;;
72115;SDS011;59991;52.140;5.428;2022-12-07T01:12:07;8.73;;;3.60;;
72115;SDS011;59991;52.140;5.428;2022-12-07T01:12:39;8.07;;;4.47;;
72115;SDS011;59991;52.140;5.428;2022-12-07T01:13:11;4.57;;;3.42;;
72115;SDS011;59991;52.140;5.428;2022-12-07T01:13:43;5.70;;;3.90;;
72115;SDS011;59991;52.140;5.428;2022-12-07T01:14:14;8.95;;;4.55;;
72115;SDS011;59991;52.140;5.428;2022-12-07T01:14:46;5.65;;;4.07;;
72115;SDS011;59991;52.140;5.428;2022-12-07T01:15:17;12.70;;;4.13;;
72115;SDS011;59991;52.140;5.428;2022-12-07T01:15:49;9.75;;;5.20;;
72115;SDS011;59991;52.140;5.428;2022-12-07T01:16:21;9.75;;;5.00;;
72115;SDS011;59991;52.140;5.428;2022-12-07T01:16:54;6.35;;;4.22;;
72115;SDS011;59991;52.140;5.428;2022-12-07T01:17:25;8.43;;;3.92;;
72115;SDS011;59991;52.140;5.428;2022-12-07T01:17:57;8.00;;;4.60;;
72115;SDS011;59991;52.140;5.428;2022-12-07T01:18:29;10.45;;;4.22;;
72115;SDS011;59991;52.140;5.428;2022-12-07T01:19:02;9.50;;;4.18;;
72115;SDS011;59991;52.140;5.428;2022-12-07T01:19:35;5.55;;;4.00;;
72115;SDS011;59991;52.140;5.428;2022-12-07T01:20:07;9.80;;;4.25;;
72115;SDS011;59991;52.140;5.428;2022-12-07T01:20:39;6.90;;;3.60;;
72115;SDS011;59991;52.140;5.428;2022-12-07T01:21:11;8.93;;;4.03;;
72115;SDS011;59991;52.140;5.428;2022-12-07T01:21:44;4.93;;;3.50;;
72115;SDS011;59991;52.140;5.428;2022-12-07T01:22:15;5.57;;;3.40;;
72115;SDS011;59991;52.140;5.428;2022-12-07T01:22:47;8.93;;;4.35;;
72115;SDS011;59991;52.140;5.428;2022-12-07T01:23:37;8.27;;;4.43;;
72115;SDS011;59991;52.140;5.428;2022-12-07T01:24:09;5.18;;;3.83;;
72115;SDS011;59991;52.140;5.428;2022-12-07T01:24:42;5.15;;;3.50;;
72115;SDS011;59991;52.140;5.428;2022-12-07T01:25:13;7.40;;;4.53;;
72115;SDS011;59991;52.140;5.428;2022-12-07T01:25:44;8.35;;;3.88;;
72115;SDS011;59991;52.140;5.428;2022-12-07T01:26:17;5.65;;;4.03;;
72115;SDS011;59991;52.140;5.428;2022-12-07T01:26:50;3.85;;;3.40;;
72115;SDS011;59991;52.140;5.428;2022-12-07T01:27:22;7.90;;;3.58;;
72115;SDS011;59991;52.140;5.428;2022-12-07T01:27:53;8.70;;;4.25;;
72115;SDS011;59991;52.140;5.428;2022-12-07T01:28:25;10.13;;;4.15;;
72115;SDS011;59991;52.140;5.428;2022-12-07T01:28:57;7.30;;;3.97;;
72115;SDS011;59991;52.140;5.428;2022-12-07T01:29:30;4.10;;;3.47;;
72115;SDS011;59991;52.140;5.428;2022-12-07T01:30:03;8.18;;;4.63;;
72115;SDS011;59991;52.140;5.428;2022-12-07T01:30:36;10.75;;;4.32;;
72115;SDS011;59991;52.140;5.428;2022-12-07T01:31:11;10.32;;;4.45;;
72115;SDS011;59991;52.140;5.428;2022-12-07T01:31:48;6.70;;;3.97;;
72115;SDS011;59991;52.140;5.428;2022-12-07T01:32:20;9.43;;;3.75;;
72115;SDS011;59991;52.140;5.428;2022-12-07T01:32:51;7.63;;;4.13;;
72115;SDS011;59991;52.140;5.428;2022-12-07T01:33:23;8.35;;;4.20;;
72115;SDS011;59991;52.140;5.428;2022-12-07T01:33:55;6.50;;;4.07;;
72115;SDS011;59991;52.140;5.428;2022-12-07T01:34:28;5.77;;;3.93;;
72115;SDS011;59991;52.140;5.428;2022-12-07T01:35:00;4.72;;;3.08;;
72115;SDS011;59991;52.140;5.428;2022-12-07T01:35:33;7.93;;;3.75;;
72115;SDS011;59991;52.140;5.428;2022-12-07T01:36:14;7.30;;;3.83;;
72115;SDS011;59991;52.140;5.428;2022-12-07T01:36:47;7.28;;;3.45;;
72115;SDS011;59991;52.140;5.428;2022-12-07T01:37:18;8.93;;;4.05;;
72115;SDS011;59991;52.140;5.428;2022-12-07T01:37:50;9.77;;;4.22;;
72115;SDS011;59991;52.140;5.428;2022-12-07T01:38:21;3.47;;;3.17;;
72115;SDS011;59991;52.140;5.428;2022-12-07T01:39:00;9.82;;;3.90;;
72115;SDS011;59991;52.140;5.428;2022-12-07T01:39:33;9.65;;;3.75;;
72115;SDS011;59991;52.140;5.428;2022-12-07T01:40:05;7.30;;;3.63;;
72115;SDS011;59991;52.140;5.428;2022-12-07T01:40:38;6.25;;;3.35;;
72115;SDS011;59991;52.140;5.428;2022-12-07T01:41:10;10.32;;;4.00;;
72115;SDS011;59991;52.140;5.428;2022-12-07T01:41:41;5.10;;;3.60;;
72115;SDS011;59991;52.140;5.428;2022-12-07T01:42:14;6.72;;;3.60;;
72115;SDS011;59991;52.140;5.428;2022-12-07T01:42:46;12.82;;;4.40;;
72115;SDS011;59991;52.140;5.428;2022-12-07T01:43:17;5.40;;;4.32;;
72115;SDS011;59991;52.140;5.428;2022-12-07T01:45:50;5.63;;;2.95;;
72115;SDS011;59991;52.140;5.428;2022-12-07T01:46:22;8.40;;;3.47;;
72115;SDS011;59991;52.140;5.428;2022-12-07T01:46:54;7.72;;;2.63;;
72115;SDS011;59991;52.140;5.428;2022-12-07T01:47:28;7.78;;;3.17;;
72115;SDS011;59991;52.140;5.428;2022-12-07T01:47:59;5.22;;;3.53;;
72115;SDS011;59991;52.140;5.428;2022-12-07T01:48:32;7.95;;;3.60;;
72115;SDS011;59991;52.140;5.428;2022-12-07T01:49:12;7.70;;;3.55;;
72115;SDS011;59991;52.140;5.428;2022-12-07T01:49:48;7.72;;;3.78;;
72115;SDS011;59991;52.140;5.428;2022-12-07T01:50:20;7.75;;;3.38;;
72115;SDS011;59991;52.140;5.428;2022-12-07T01:50:55;5.13;;;3.50;;
72115;SDS011;59991;52.140;5.428;2022-12-07T01:51:30;9.40;;;3.63;;
72115;SDS011;59991;52.140;5.428;2022-12-07T01:52:40;7.75;;;3.65;;
72115;SDS011;59991;52.140;5.428;2022-12-07T01:53:14;9.75;;;4.35;;
72115;SDS011;59991;52.140;5.428;2022-12-07T01:53:46;5.20;;;4.15;;
72115;SDS011;59991;52.140;5.428;2022-12-07T01:54:18;7.82;;;3.80;;
72115;SDS011;59991;52.140;5.428;2022-12-07T01:54:53;7.55;;;3.35;;
72115;SDS011;59991;52.140;5.428;2022-12-07T01:55:28;6.78;;;2.78;;
72115;SDS011;59991;52.140;5.428;2022-12-07T01:56:00;4.72;;;3.70;;
72115;SDS011;59991;52.140;5.428;2022-12-07T01:56:32;6.20;;;3.60;;
72115;SDS011;59991;52.140;5.428;2022-12-07T01:57:04;6.97;;;3.00;;
72115;SDS011;59991;52.140;5.428;2022-12-07T01:57:40;4.93;;;3.27;;
72115;SDS011;59991;52.140;5.428;2022-12-07T01:58:14;6.40;;;3.70;;
72115;SDS011;59991;52.140;5.428;2022-12-07T01:58:47;6.30;;;2.72;;
72115;SDS011;59991;52.140;5.428;2022-12-07T01:59:21;8.43;;;4.03;;
72115;SDS011;59991;52.140;5.428;2022-12-07T01:59:55;9.95;;;3.22;;
72115;SDS011;59991;52.140;5.428;2022-12-07T02:00:28;11.48;;;4.45;;
72115;SDS011;59991;52.140;5.428;2022-12-07T02:00:59;6.93;;;3.08;;
72115;SDS011;59991;52.140;5.428;2022-12-07T02:01:31;6.55;;;3.63;;
72115;SDS011;59991;52.140;5.428;2022-12-07T02:02:04;7.75;;;3.60;;
72115;SDS011;59991;52.140;5.428;2022-12-07T02:02:46;9.10;;;2.60;;
72115;SDS011;59991;52.140;5.428;2022-12-07T02:03:24;5.97;;;2.87;;
72115;SDS011;59991;52.140;5.428;2022-12-07T02:04:01;9.05;;;3.47;;
72115;SDS011;59991;52.140;5.428;2022-12-07T02:04:32;5.07;;;2.65;;
72115;SDS011;59991;52.140;5.428;2022-12-07T02:05:05;6.13;;;2.97;;
72115;SDS011;59991;52.140;5.428;2022-12-07T02:05:37;9.52;;;4.82;;
72115;SDS011;59991;52.140;5.428;2022-12-07T02:06:12;3.92;;;2.88;;
72115;SDS011;59991;52.140;5.428;2022-12-07T02:06:49;4.43;;;2.83;;
72115;SDS011;59991;52.140;5.428;2022-12-07T02:07:21;3.92;;;2.72;;
72115;SDS011;59991;52.140;5.428;2022-12-07T02:07:55;7.93;;;2.88;;
72115;SDS011;59991;52.140;5.428;2022-12-07T02:08:27;10.82;;;3.28;;
72115;SDS011;59991;52.140;5.428;2022-12-07T02:08:59;6.30;;;3.33;;
72115;SDS011;59991;52.140;5.428;2022-12-07T02:09:30;7.18;;;2.92;;
72115;SDS011;59991;52.140;5.428;2022-12-07T02:10:12;8.95;;;3.30;;
72115;SDS011;59991;52.140;5.428;2022-12-07T02:10:43;5.60;;;2.90;;
72115;SDS011;59991;52.140;5.428;2022-12-07T02:11:15;7.30;;;3.17;;
72115;SDS011;59991;52.140;5.428;2022-12-07T02:11:47;7.38;;;2.95;;
72115;SDS011;59991;52.140;5.428;2022-12-07T02:12:19;5.57;;;2.72;;
72115;SDS011;59991;52.140;5.428;2022-12-07T02:12:55;5.20;;;3.45;;
72115;SDS011;59991;52.140;5.428;2022-12-07T02:13:30;5.10;;;2.85;;
72115;SDS011;59991;52.140;5.428;2022-12-07T02:14:04;8.35;;;2.40;;
72115;SDS011;59991;52.140;5.428;2022-12-07T02:14:36;9.30;;;3.80;;
72115;SDS011;59991;52.140;5.428;2022-12-07T02:15:08;5.78;;;3.42;;
72115;SDS011;59991;52.140;5.428;2022-12-07T02:16:57;4.78;;;3.03;;
72115;SDS011;59991;52.140;5.428;2022-12-07T02:17:39;6.95;;;2.80;;
72115;SDS011;59991;52.140;5.428;2022-12-07T02:20:21;6.75;;;2.80;;
72115;SDS011;59991;52.140;5.428;2022-12-07T02:21:51;9.75;;;2.78;;
72115;SDS011;59991;52.140;5.428;2022-12-07T02:22:44;6.80;;;3.10;;
72115;SDS011;59991;52.140;5.428;2022-12-07T02:23:56;5.10;;;3.22;;
72115;SDS011;59991;52.140;5.428;2022-12-07T02:26:38;7.47;;;4.03;;
72115;SDS011;59991;52.140;5.428;2022-12-07T02:28:27;6.18;;;2.60;;
72115;SDS011;59991;52.140;5.428;2022-12-07T02:29:49;4.55;;;2.92;;
72115;SDS011;59991;52.140;5.428;2022-12-07T02:30:33;6.95;;;3.63;;
72115;SDS011;59991;52.140;5.428;2022-12-07T02:31:11;4.27;;;2.40;;
72115;SDS011;59991;52.140;5.428;2022-12-07T02:32:00;8.65;;;3.05;;
72115;SDS011;59991;52.140;5.428;2022-12-07T02:32:40;4.78;;;2.55;;
72115;SDS011;59991;52.140;5.428;2022-12-07T02:33:19;5.20;;;3.15;;
72115;SDS011;59991;52.140;5.428;2022-12-07T02:34:00;7.07;;;2.70;;
72115;SDS011;59991;52.140;5.428;2022-12-07T02:35:20;6.90;;;3.38;;
72115;SDS011;59991;52.140;5.428;2022-12-07T02:36:00;4.18;;;3.50;;
72115;SDS011;59991;52.140;5.428;2022-12-07T02:36:39;6.20;;;3.15;;
72115;SDS011;59991;52.140;5.428;2022-12-07T02:37:18;4.85;;;2.65;;
72115;SDS011;59991;52.140;5.428;2022-12-07T02:38:58;5.10;;;2.33;;
72115;SDS011;59991;52.140;5.428;2022-12-07T02:39:38;7.45;;;3.63;;
72115;SDS011;59991;52.140;5.428;2022-12-07T02:40:20;7.47;;;3.00;;
72115;SDS011;59991;52.140;5.428;2022-12-07T02:41:47;6.93;;;3.58;;
72115;SDS011;59991;52.140;5.428;2022-12-07T02:42:23;6.15;;;3.03;;
72115;SDS011;59991;52.140;5.428;2022-12-07T02:43:05;7.22;;;2.97;;
72115;SDS011;59991;52.140;5.428;2022-12-07T02:43:50;4.63;;;2.80;;
72115;SDS011;59991;52.140;5.428;2022-12-07T02:44:25;6.82;;;2.47;;
72115;SDS011;59991;52.140;5.428;2022-12-07T02:44:59;3.63;;;3.10;;
72115;SDS011;59991;52.140;5.428;2022-12-07T02:45:32;5.38;;;3.28;;
72115;SDS011;59991;52.140;5.428;2022-12-07T02:46:27;6.68;;;3.33;;
72115;SDS011;59991;52.140;5.428;2022-12-07T02:47:06;8.35;;;3.67;;
72115;SDS011;59991;52.140;5.428;2022-12-07T02:47:40;9.75;;;3.38;;
72115;SDS011;59991;52.140;5.428;2022-12-07T02:48:13;5.55;;;3.25;;
72115;SDS011;59991;52.140;5.428;2022-12-07T02:48:47;6.22;;;3.50;;
72115;SDS011;59991;52.140;5.428;2022-12-07T02:49:39;4.55;;;3.17;;
72115;SDS011;59991;52.140;5.428;2022-12-07T02:50:11;5.85;;;3.28;;
72115;SDS011;59991;52.140;5.428;2022-12-07T02:50:52;7.38;;;2.92;;
72115;SDS011;59991;52.140;5.428;2022-12-07T02:51:24;6.23;;;2.70;;
72115;SDS011;59991;52.140;5.428;2022-12-07T02:51:56;6.88;;;3.28;;
72115;SDS011;59991;52.140;5.428;2022-12-07T02:52:28;8.55;;;3.67;;
72115;SDS011;59991;52.140;5.428;2022-12-07T02:52:59;6.15;;;3.05;;
72115;SDS011;59991;52.140;5.428;2022-12-07T02:53:32;4.50;;;3.65;;
72115;SDS011;59991;52.140;5.428;2022-12-07T02:54:17;8.13;;;2.50;;
72115;SDS011;59991;52.140;5.428;2022-12-07T02:54:50;7.20;;;2.78;;
72115;SDS011;59991;52.140;5.428;2022-12-07T02:55:23;7.68;;;3.25;;
72115;SDS011;59991;52.140;5.428;2022-12-07T02:56:53;5.35;;;2.97;;
72115;SDS011;59991;52.140;5.428;2022-12-07T02:57:54;4.67;;;3.87;;
72115;SDS011;59991;52.140;5.428;2022-12-07T02:58:44;6.70;;;3.10;;
72115;SDS011;59991;52.140;5.428;2022-12-07T03:00:23;7.95;;;2.80;;
72115;SDS011;59991;52.140;5.428;2022-12-07T03:01:08;8.85;;;2.60;;
72115;SDS011;59991;52.140;5.428;2022-12-07T03:02:00;10.45;;;2.20;;
72115;SDS011;59991;52.140;5.428;2022-12-07T03:02:59;4.20;;;2.78;;
72115;SDS011;59991;52.140;5.428;2022-12-07T03:03:35;7.50;;;2.55;;
72115;SDS011;59991;52.140;5.428;2022-12-07T03:06:38;6.53;;;2.63;;
72115;SDS011;59991;52.140;5.428;2022-12-07T03:07:26;8.00;;;2.50;;
72115;SDS011;59991;52.140;5.428;2022-12-07T03:09:20;3.60;;;2.47;;
72115;SDS011;59991;52.140;5.428;2022-12-07T03:11:03;4.07;;;2.35;;
72115;SDS011;59991;52.140;5.428;2022-12-07T03:12:25;4.20;;;2.50;;
72115;SDS011;59991;52.140;5.428;2022-12-07T03:13:23;7.80;;;2.63;;
72115;SDS011;59991;52.140;5.428;2022-12-07T03:14:13;8.57;;;2.53;;
72115;SDS011;59991;52.140;5.428;2022-12-07T03:14:55;7.75;;;2.30;;
72115;SDS011;59991;52.140;5.428;2022-12-07T03:15:58;3.67;;;2.17;;
72115;SDS011;59991;52.140;5.428;2022-12-07T03:16:37;2.58;;;2.38;;
72115;SDS011;59991;52.140;5.428;2022-12-07T03:17:16;4.72;;;3.28;;
72115;SDS011;59991;52.140;5.428;2022-12-07T03:19:30;12.63;;;3.03;;
72115;SDS011;59991;52.140;5.428;2022-12-07T03:19:38;4.13;;;2.30;;
72115;SDS011;59991;52.140;5.428;2022-12-07T03:20:13;7.35;;;3.17;;
72115;SDS011;59991;52.140;5.428;2022-12-07T03:20:50;5.50;;;2.47;;
72115;SDS011;59991;52.140;5.428;2022-12-07T03:21:29;9.07;;;3.60;;
72115;SDS011;59991;52.140;5.428;2022-12-07T03:22:05;7.13;;;2.58;;
72115;SDS011;59991;52.140;5.428;2022-12-07T03:22:41;6.68;;;2.53;;
72115;SDS011;59991;52.140;5.428;2022-12-07T03:23:15;4.22;;;2.53;;
72115;SDS011;59991;52.140;5.428;2022-12-07T03:23:51;4.65;;;2.28;;
72115;SDS011;59991;52.140;5.428;2022-12-07T03:24:29;6.00;;;3.03;;
72115;SDS011;59991;52.140;5.428;2022-12-07T03:25:06;6.30;;;2.35;;
72115;SDS011;59991;52.140;5.428;2022-12-07T03:25:44;6.18;;;2.58;;
72115;SDS011;59991;52.140;5.428;2022-12-07T03:26:19;5.00;;;2.13;;
72115;SDS011;59991;52.140;5.428;2022-12-07T03:26:56;9.30;;;2.65;;
72115;SDS011;59991;52.140;5.428;2022-12-07T03:27:52;4.03;;;2.57;;
72115;SDS011;59991;52.140;5.428;2022-12-07T03:28:30;7.85;;;2.33;;
72115;SDS011;59991;52.140;5.428;2022-12-07T03:29:12;5.25;;;3.13;;
72115;SDS011;59991;52.140;5.428;2022-12-07T03:29:50;7.30;;;3.13;;
72115;SDS011;59991;52.140;5.428;2022-12-07T03:31:16;4.60;;;2.30;;
72115;SDS011;59991;52.140;5.428;2022-12-07T03:31:29;6.55;;;2.30;;
72115;SDS011;59991;52.140;5.428;2022-12-07T03:33:09;4.90;;;2.80;;
72115;SDS011;59991;52.140;5.428;2022-12-07T03:34:34;5.55;;;2.20;;
72115;SDS011;59991;52.140;5.428;2022-12-07T03:36:10;9.25;;;2.10;;
72115;SDS011;59991;52.140;5.428;2022-12-07T03:38:28;4.30;;;2.30;;
72115;SDS011;59991;52.140;5.428;2022-12-07T03:39:58;6.30;;;2.70;;
72115;SDS011;59991;52.140;5.428;2022-12-07T03:40:43;3.45;;;2.50;;
72115;SDS011;59991;52.140;5.428;2022-12-07T03:41:25;4.07;;;2.65;;
72115;SDS011;59991;52.140;5.428;2022-12-07T03:42:00;3.92;;;2.20;;
72115;SDS011;59991;52.140;5.428;2022-12-07T03:42:34;8.40;;;2.30;;
72115;SDS011;59991;52.140;5.428;2022-12-07T03:43:06;4.38;;;2.50;;
72115;SDS011;59991;52.140;5.428;2022-12-07T03:43:38;7.78;;;2.22;;
72115;SDS011;59991;52.140;5.428;2022-12-07T03:45:02;7.43;;;2.13;;
72115;SDS011;59991;52.140;5.428;2022-12-07T03:45:38;5.95;;;2.25;;
72115;SDS011;59991;52.140;5.428;2022-12-07T03:48:59;3.17;;;1.98;;
72115;SDS011;59991;52.140;5.428;2022-12-07T03:49:40;4.33;;;2.33;;
72115;SDS011;59991;52.140;5.428;2022-12-07T03:50:15;5.75;;;3.85;;
72115;SDS011;59991;52.140;5.428;2022-12-07T03:52:03;5.22;;;2.33;;
72115;SDS011;59991;52.140;5.428;2022-12-07T03:52:47;6.43;;;2.50;;
72115;SDS011;59991;52.140;5.428;2022-12-07T03:53:37;7.43;;;1.92;;
72115;SDS011;59991;52.140;5.428;2022-12-07T03:55:47;4.68;;;2.00;;
72115;SDS011;59991;52.140;5.428;2022-12-07T03:56:20;6.70;;;2.42;;
72115;SDS011;59991;52.140;5.428;2022-12-07T03:56:53;4.22;;;2.28;;
72115;SDS011;59991;52.140;5.428;2022-12-07T03:57:27;6.47;;;2.30;;
72115;SDS011;59991;52.140;5.428;2022-12-07T03:58:03;5.00;;;2.33;;
72115;SDS011;59991;52.140;5.428;2022-12-07T03:58:38;3.45;;;3.08;;
72115;SDS011;59991;52.140;5.428;2022-12-07T03:59:11;7.00;;;2.25;;
72115;SDS011;59991;52.140;5.428;2022-12-07T03:59:45;13.80;;;3.33;;
72115;SDS011;59991;52.140;5.428;2022-12-07T04:00:17;6.95;;;2.50;;
72115;SDS011;59991;52.140;5.428;2022-12-07T04:00:50;7.97;;;2.83;;
72115;SDS011;59991;52.140;5.428;2022-12-07T04:01:23;6.47;;;3.08;;
72115;SDS011;59991;52.140;5.428;2022-12-07T04:01:56;4.57;;;2.20;;
72115;SDS011;59991;52.140;5.428;2022-12-07T04:02:28;6.25;;;2.65;;
72115;SDS011;59991;52.140;5.428;2022-12-07T04:03:00;4.43;;;2.40;;
72115;SDS011;59991;52.140;5.428;2022-12-07T04:03:32;6.68;;;2.45;;
72115;SDS011;59991;52.140;5.428;2022-12-07T04:04:03;5.55;;;2.30;;
72115;SDS011;59991;52.140;5.428;2022-12-07T04:04:34;4.15;;;2.28;;